sensor_id;sensor_type;location;lat;lon;timestamp;pressure;altitude;pressure_sealevel;temperature;humidity
11525;BME280;5819;49.648;8.330;2023-02-17T00:01:12;101148.25;;;8.85;100.00
11525;BME280;5819;49.648;8.330;2023-02-17T00:03:41;101126.91;;;9.45;100.00
11525;BME280;5819;49.648;8.330;2023-02-17T00:06:10;101133.84;;;9.44;100.00
11525;BME280;5819;49.648;8.330;2023-02-17T00:08:38;101128.84;;;9.36;100.00
11525;BME280;5819;49.648;8.330;2023-02-17T00:11:06;101125.31;;;9.39;100.00
11525;BME280;5819;49.648;8.330;2023-02-17T00:13:36;101133.81;;;9.46;100.00
11525;BME280;5819;49.648;8.330;2023-02-17T00:16:05;101128.66;;;9.44;100.00
11525;BME280;5819;49.648;8.330;2023-02-17T00:18:35;101124.28;;;9.46;100.00
11525;BME280;5819;49.648;8.330;2023-02-17T00:21:14;101129.47;;;9.46;100.00
11525;BME280;5819;49.648;8.330;2023-02-17T00:23:43;101124.53;;;9.69;100.00
11525;BME280;5819;49.648;8.330;2023-02-17T00:26:11;101119.78;;;9.85;99.35
11525;BME280;5819;49.648;8.330;2023-02-17T00:28:42;101120.09;;;9.74;100.00
11525;BME280;5819;49.648;8.330;2023-02-17T00:31:14;101121.91;;;9.37;100.00
11525;BME280;5819;49.648;8.330;2023-02-17T00:33:44;101127.88;;;9.40;100.00
11525;BME280;5819;49.648;8.330;2023-02-17T00:36:14;101131.22;;;9.46;100.00
11525;BME280;5819;49.648;8.330;2023-02-17T00:38:43;101127.81;;;9.76;100.00
11525;BME280;5819;49.648;8.330;2023-02-17T00:41:13;101129.66;;;9.72;100.00
11525;BME280;5819;49.648;8.330;2023-02-17T00:43:43;101126.03;;;9.78;100.00
11525;BME280;5819;49.648;8.330;2023-02-17T00:46:11;101123.13;;;9.90;100.00
11525;BME280;5819;49.648;8.330;2023-02-17T00:48:39;101121.66;;;9.80;100.00
11525;BME280;5819;49.648;8.330;2023-02-17T00:51:08;101125.34;;;9.71;100.00
11525;BME280;5819;49.648;8.330;2023-02-17T00:53:36;101124.25;;;9.80;100.00
11525;BME280;5819;49.648;8.330;2023-02-17T00:56:05;101121.31;;;9.60;100.00
11525;BME280;5819;49.648;8.330;2023-02-17T00:58:34;101121.38;;;9.58;100.00
11525;BME280;5819;49.648;8.330;2023-02-17T01:01:04;101128.66;;;9.44;100.00
11525;BME280;5819;49.648;8.330;2023-02-17T01:03:31;101124.97;;;9.53;100.00
11525;BME280;5819;49.648;8.330;2023-02-17T01:06:05;101128.84;;;9.36;100.00
11525;BME280;5819;49.648;8.330;2023-02-17T01:08:33;101128.72;;;9.43;100.00
11525;BME280;5819;49.648;8.330;2023-02-17T01:11:01;101132.72;;;9.19;100.00
11525;BME280;5819;49.648;8.330;2023-02-17T01:13:30;101143.97;;;9.19;100.00
11525;BME280;5819;49.648;8.330;2023-02-17T01:15:58;101154.53;;;9.12;100.00
11525;BME280;5819;49.648;8.330;2023-02-17T01:18:27;101151.44;;;9.33;100.00
11525;BME280;5819;49.648;8.330;2023-02-17T01:20:55;101143.06;;;9.22;100.00
11525;BME280;5819;49.648;8.330;2023-02-17T01:23:23;101146.06;;;9.05;100.00
11525;BME280;5819;49.648;8.330;2023-02-17T01:25:51;101153.75;;;9.08;100.00
11525;BME280;5819;49.648;8.330;2023-02-17T01:28:21;101160.00;;;9.01;100.00
11525;BME280;5819;49.648;8.330;2023-02-17T01:30:48;101152.53;;;9.23;100.00
11525;BME280;5819;49.648;8.330;2023-02-17T01:33:17;101135.25;;;9.57;100.00
11525;BME280;5819;49.648;8.330;2023-02-17T01:35:46;101147.47;;;9.54;100.00
11525;BME280;5819;49.648;8.330;2023-02-17T01:38:14;101141.78;;;9.72;100.00
11525;BME280;5819;49.648;8.330;2023-02-17T01:40:46;101136.91;;;9.60;100.00
11525;BME280;5819;49.648;8.330;2023-02-17T01:43:15;101140.47;;;9.56;100.00
11525;BME280;5819;49.648;8.330;2023-02-17T01:45:50;101140.94;;;9.37;100.00
11525;BME280;5819;49.648;8.330;2023-02-17T01:48:20;101138.59;;;9.27;100.00
11525;BME280;5819;49.648;8.330;2023-02-17T01:50:52;101135.16;;;9.26;100.00
11525;BME280;5819;49.648;8.330;2023-02-17T01:53:24;101143.25;;;9.14;100.00
11525;BME280;5819;49.648;8.330;2023-02-17T01:55:54;101141.91;;;9.33;100.00
11525;BME280;5819;49.648;8.330;2023-02-17T01:58:24;101144.84;;;9.20;100.00
11525;BME280;5819;49.648;8.330;2023-02-17T02:00:54;101136.56;;;9.04;100.00
11525;BME280;5819;49.648;8.330;2023-02-17T02:03:26;101135.84;;;8.98;100.00
11525;BME280;5819;49.648;8.330;2023-02-17T02:05:59;101133.22;;;8.99;100.00
11525;BME280;5819;49.648;8.330;2023-02-17T02:08:36;101134.41;;;8.86;100.00
11525;BME280;5819;49.648;8.330;2023-02-17T02:14:23;101123.38;;;8.75;100.00
11525;BME280;5819;49.648;8.330;2023-02-17T02:16:55;101123.44;;;8.73;100.00
11525;BME280;5819;49.648;8.330;2023-02-17T02:20:06;101108.66;;;8.77;100.00
11525;BME280;5819;49.648;8.330;2023-02-17T02:26:09;101088.28;;;8.99;100.00
11525;BME280;5819;49.648;8.330;2023-02-17T02:28:59;101079.63;;;8.98;100.00
11525;BME280;5819;49.648;8.330;2023-02-17T02:31:42;101078.72;;;8.99;100.00
11525;BME280;5819;49.648;8.330;2023-02-17T02:34:15;101074.50;;;8.95;100.00
11525;BME280;5819;49.648;8.330;2023-02-17T02:36:50;101078.84;;;8.95;100.00
11525;BME280;5819;49.648;8.330;2023-02-17T02:39:24;101075.44;;;8.92;100.00
11525;BME280;5819;49.648;8.330;2023-02-17T02:41:58;101067.47;;;9.00;100.00
11525;BME280;5819;49.648;8.330;2023-02-17T02:44:28;101074.47;;;8.97;100.00
11525;BME280;5819;49.648;8.330;2023-02-17T02:46:57;101067.56;;;8.96;100.00
11525;BME280;5819;49.648;8.330;2023-02-17T02:49:28;101063.22;;;8.96;100.00
11525;BME280;5819;49.648;8.330;2023-02-17T02:52:04;101068.34;;;8.99;100.00
11525;BME280;5819;49.648;8.330;2023-02-17T02:54:43;101067.31;;;9.06;100.00
11525;BME280;5819;49.648;8.330;2023-02-17T02:57:25;101061.22;;;9.07;100.00
11525;BME280;5819;49.648;8.330;2023-02-17T03:00:09;101053.31;;;9.12;100.00
11525;BME280;5819;49.648;8.330;2023-02-17T03:02:44;101046.09;;;9.24;100.00
11525;BME280;5819;49.648;8.330;2023-02-17T03:05:21;101049.63;;;9.22;100.00
11525;BME280;5819;49.648;8.330;2023-02-17T03:07:55;101041.72;;;9.26;100.00
11525;BME280;5819;49.648;8.330;2023-02-17T03:10:25;101035.38;;;9.36;100.00
11525;BME280;5819;49.648;8.330;2023-02-17T03:12:54;101036.16;;;9.40;100.00
11525;BME280;5819;49.648;8.330;2023-02-17T03:15:25;101033.72;;;9.34;100.00
11525;BME280;5819;49.648;8.330;2023-02-17T03:17:55;101040.88;;;9.24;100.00
11525;BME280;5819;49.648;8.330;2023-02-17T03:20:25;101027.25;;;9.49;100.00
11525;BME280;5819;49.648;8.330;2023-02-17T03:22:56;101033.34;;;9.48;100.00
11525;BME280;5819;49.648;8.330;2023-02-17T03:25:24;101030.19;;;9.36;100.00
11525;BME280;5819;49.648;8.330;2023-02-17T03:27:52;101042.81;;;9.18;100.00
11525;BME280;5819;49.648;8.330;2023-02-17T03:30:20;101040.34;;;9.12;100.00
11525;BME280;5819;49.648;8.330;2023-02-17T03:32:48;101043.09;;;9.06;100.00
11525;BME280;5819;49.648;8.330;2023-02-17T03:35:15;101044.88;;;9.04;100.00
11525;BME280;5819;49.648;8.330;2023-02-17T03:37:45;101041.38;;;9.06;100.00
11525;BME280;5819;49.648;8.330;2023-02-17T03:40:12;101046.56;;;9.06;100.00
11525;BME280;5819;49.648;8.330;2023-02-17T03:42:40;101045.34;;;9.19;100.00
11525;BME280;5819;49.648;8.330;2023-02-17T03:45:08;101034.53;;;9.36;100.00
11525;BME280;5819;49.648;8.330;2023-02-17T03:47:36;101035.56;;;9.61;100.00
11525;BME280;5819;49.648;8.330;2023-02-17T03:50:05;101034.97;;;9.52;100.00
11525;BME280;5819;49.648;8.330;2023-02-17T03:52:33;101039.88;;;9.62;100.00
11525;BME280;5819;49.648;8.330;2023-02-17T03:55:03;101034.72;;;9.61;100.00
11525;BME280;5819;49.648;8.330;2023-02-17T03:57:31;101043.81;;;9.45;100.00
11525;BME280;5819;49.648;8.330;2023-02-17T04:00:00;101042.97;;;9.44;100.00
11525;BME280;5819;49.648;8.330;2023-02-17T04:02:38;101034.75;;;9.59;100.00
11525;BME280;5819;49.648;8.330;2023-02-17T04:05:09;101032.50;;;9.78;100.00
11525;BME280;5819;49.648;8.330;2023-02-17T04:07:37;101046.94;;;9.57;100.00
11525;BME280;5819;49.648;8.330;2023-02-17T04:10:07;101042.84;;;9.49;100.00
11525;BME280;5819;49.648;8.330;2023-02-17T04:12:35;101047.38;;;9.40;100.00
11525;BME280;5819;49.648;8.330;2023-02-17T04:15:04;101042.31;;;9.36;100.00
11525;BME280;5819;49.648;8.330;2023-02-17T04:17:32;101041.56;;;9.31;100.00
11525;BME280;5819;49.648;8.330;2023-02-17T04:20:00;101043.06;;;9.39;100.00
11525;BME280;5819;49.648;8.330;2023-02-17T04:22:28;101043.03;;;9.43;100.00
11525;BME280;5819;49.648;8.330;2023-02-17T04:24:55;101040.88;;;9.26;100.00
11525;BME280;5819;49.648;8.330;2023-02-17T04:27:24;101045.00;;;9.33;100.00
11525;BME280;5819;49.648;8.330;2023-02-17T04:29:53;101059.91;;;9.25;100.00
11525;BME280;5819;49.648;8.330;2023-02-17T04:32:21;101052.81;;;9.31;100.00
11525;BME280;5819;49.648;8.330;2023-02-17T04:34:48;101053.78;;;9.27;100.00
11525;BME280;5819;49.648;8.330;2023-02-17T04:37:16;101047.78;;;9.25;100.00
11525;BME280;5819;49.648;8.330;2023-02-17T04:39:44;101046.44;;;9.43;100.00
11525;BME280;5819;49.648;8.330;2023-02-17T04:42:12;101050.41;;;9.58;100.00
11525;BME280;5819;49.648;8.330;2023-02-17T04:44:41;101052.81;;;9.64;100.00
11525;BME280;5819;49.648;8.330;2023-02-17T04:47:09;101045.28;;;9.55;100.00
11525;BME280;5819;49.648;8.330;2023-02-17T04:49:37;101047.41;;;9.71;100.00
11525;BME280;5819;49.648;8.330;2023-02-17T04:52:05;101054.28;;;9.74;100.00
11525;BME280;5819;49.648;8.330;2023-02-17T04:54:32;101049.97;;;9.73;100.00
11525;BME280;5819;49.648;8.330;2023-02-17T04:57:00;101050.75;;;9.75;100.00
11525;BME280;5819;49.648;8.330;2023-02-17T04:59:28;101049.22;;;9.68;100.00
11525;BME280;5819;49.648;8.330;2023-02-17T05:01:57;101060.88;;;9.55;100.00
11525;BME280;5819;49.648;8.330;2023-02-17T05:04:25;101049.69;;;9.51;100.00
11525;BME280;5819;49.648;8.330;2023-02-17T05:06:53;101054.13;;;9.48;100.00
11525;BME280;5819;49.648;8.330;2023-02-17T05:09:21;101048.13;;;9.46;100.00
11525;BME280;5819;49.648;8.330;2023-02-17T05:11:48;101051.94;;;9.65;100.00
11525;BME280;5819;49.648;8.330;2023-02-17T05:14:16;101048.69;;;9.57;100.00
11525;BME280;5819;49.648;8.330;2023-02-17T05:16:44;101058.56;;;9.75;100.00
11525;BME280;5819;49.648;8.330;2023-02-17T05:19:13;101041.34;;;9.71;100.00
11525;BME280;5819;49.648;8.330;2023-02-17T05:21:41;101047.78;;;9.58;100.00
11525;BME280;5819;49.648;8.330;2023-02-17T05:24:09;101061.78;;;9.52;100.00
11525;BME280;5819;49.648;8.330;2023-02-17T05:26:37;101059.94;;;9.56;100.00
11525;BME280;5819;49.648;8.330;2023-02-17T05:29:05;101058.28;;;9.55;100.00
11525;BME280;5819;49.648;8.330;2023-02-17T05:31:32;101056.44;;;9.58;100.00
11525;BME280;5819;49.648;8.330;2023-02-17T05:34:00;101056.22;;;9.66;100.00
11525;BME280;5819;49.648;8.330;2023-02-17T05:36:30;101053.84;;;9.58;100.00
11525;BME280;5819;49.648;8.330;2023-02-17T05:38:58;101058.91;;;9.63;100.00
11525;BME280;5819;49.648;8.330;2023-02-17T05:41:26;101054.41;;;9.69;100.00
11525;BME280;5819;49.648;8.330;2023-02-17T05:43:54;101059.53;;;9.71;100.00
11525;BME280;5819;49.648;8.330;2023-02-17T05:46:22;101062.13;;;9.71;100.00
11525;BME280;5819;49.648;8.330;2023-02-17T05:48:49;101062.13;;;9.71;100.00
11525;BME280;5819;49.648;8.330;2023-02-17T05:51:17;101063.13;;;9.67;100.00
11525;BME280;5819;49.648;8.330;2023-02-17T05:53:46;101069.94;;;9.71;100.00
11525;BME280;5819;49.648;8.330;2023-02-17T05:56:14;101064.88;;;9.66;100.00
11525;BME280;5819;49.648;8.330;2023-02-17T05:58:42;101076.63;;;9.79;100.00
11525;BME280;5819;49.648;8.330;2023-02-17T06:01:10;101077.25;;;9.87;100.00
11525;BME280;5819;49.648;8.330;2023-02-17T06:03:39;101083.75;;;9.73;100.00
11525;BME280;5819;49.648;8.330;2023-02-17T06:06:07;101084.50;;;9.76;100.00
11525;BME280;5819;49.648;8.330;2023-02-17T06:08:35;101079.41;;;9.73;100.00
11525;BME280;5819;49.648;8.330;2023-02-17T06:11:05;101078.41;;;9.77;100.00
11525;BME280;5819;49.648;8.330;2023-02-17T06:13:33;101074.75;;;9.84;100.00
11525;BME280;5819;49.648;8.330;2023-02-17T06:16:01;101074.22;;;9.72;100.00
11525;BME280;5819;49.648;8.330;2023-02-17T06:18:29;101065.00;;;9.62;100.00
11525;BME280;5819;49.648;8.330;2023-02-17T06:20:58;101067.81;;;9.85;100.00
11525;BME280;5819;49.648;8.330;2023-02-17T06:23:26;101067.09;;;9.80;100.00
11525;BME280;5819;49.648;8.330;2023-02-17T06:25:54;101067.78;;;9.86;100.00
11525;BME280;5819;49.648;8.330;2023-02-17T06:28:23;101071.09;;;9.92;100.00
11525;BME280;5819;49.648;8.330;2023-02-17T06:30:51;101055.38;;;9.96;100.00
11525;BME280;5819;49.648;8.330;2023-02-17T06:33:19;101058.28;;;9.85;100.00
11525;BME280;5819;49.648;8.330;2023-02-17T06:35:47;101053.75;;;9.92;100.00
11525;BME280;5819;49.648;8.330;2023-02-17T06:38:16;101045.22;;;9.87;100.00
11525;BME280;5819;49.648;8.330;2023-02-17T06:40:45;101060.13;;;9.82;100.00
11525;BME280;5819;49.648;8.330;2023-02-17T06:43:13;101061.75;;;9.84;100.00
11525;BME280;5819;49.648;8.330;2023-02-17T06:45:42;101054.91;;;9.82;100.00
11525;BME280;5819;49.648;8.330;2023-02-17T06:48:10;101052.81;;;9.95;100.00
11525;BME280;5819;49.648;8.330;2023-02-17T06:50:38;101065.56;;;9.73;100.00
11525;BME280;5819;49.648;8.330;2023-02-17T06:53:06;101068.94;;;9.75;100.00
11525;BME280;5819;49.648;8.330;2023-02-17T06:55:34;101071.06;;;9.93;100.00
11525;BME280;5819;49.648;8.330;2023-02-17T06:58:04;101075.94;;;10.04;100.00
11525;BME280;5819;49.648;8.330;2023-02-17T07:00:33;101076.47;;;10.16;100.00
11525;BME280;5819;49.648;8.330;2023-02-17T07:03:02;101084.66;;;10.03;100.00
11525;BME280;5819;49.648;8.330;2023-02-17T07:05:32;101080.78;;;9.86;100.00
11525;BME280;5819;49.648;8.330;2023-02-17T07:08:01;101081.88;;;9.78;100.00
11525;BME280;5819;49.648;8.330;2023-02-17T07:10:29;101086.88;;;9.84;100.00
11525;BME280;5819;49.648;8.330;2023-02-17T07:12:57;101086.78;;;9.87;100.00
11525;BME280;5819;49.648;8.330;2023-02-17T07:15:24;101083.31;;;9.88;100.00
11525;BME280;5819;49.648;8.330;2023-02-17T07:17:52;101094.44;;;9.93;100.00
11525;BME280;5819;49.648;8.330;2023-02-17T07:20:21;101115.13;;;9.96;100.00
11525;BME280;5819;49.648;8.330;2023-02-17T07:22:49;101114.56;;;9.86;100.00
11525;BME280;5819;49.648;8.330;2023-02-17T07:25:17;101110.78;;;9.97;100.00
11525;BME280;5819;49.648;8.330;2023-02-17T07:27:45;101110.19;;;9.87;100.00
11525;BME280;5819;49.648;8.330;2023-02-17T07:30:13;101117.16;;;9.86;100.00
11525;BME280;5819;49.648;8.330;2023-02-17T07:32:41;101108.06;;;10.01;100.00
11525;BME280;5819;49.648;8.330;2023-02-17T07:35:09;101109.91;;;9.98;100.00
11525;BME280;5819;49.648;8.330;2023-02-17T07:37:39;101105.72;;;9.92;100.00
11525;BME280;5819;49.648;8.330;2023-02-17T07:40:07;101095.38;;;9.91;100.00
11525;BME280;5819;49.648;8.330;2023-02-17T07:42:35;101109.34;;;9.86;100.00
11525;BME280;5819;49.648;8.330;2023-02-17T07:45:04;101099.44;;;9.99;100.00
11525;BME280;5819;49.648;8.330;2023-02-17T07:47:32;101085.63;;;9.99;100.00
11525;BME280;5819;49.648;8.330;2023-02-17T07:50:00;101070.41;;;10.45;100.00
11525;BME280;5819;49.648;8.330;2023-02-17T07:52:28;101089.38;;;10.19;100.00
11525;BME280;5819;49.648;8.330;2023-02-17T07:54:57;101084.56;;;10.06;100.00
11525;BME280;5819;49.648;8.330;2023-02-17T07:57:25;101095.81;;;10.06;100.00
11525;BME280;5819;49.648;8.330;2023-02-17T07:59:53;101095.84;;;10.05;100.00
11525;BME280;5819;49.648;8.330;2023-02-17T08:02:21;101087.72;;;10.17;100.00
11525;BME280;5819;49.648;8.330;2023-02-17T08:04:50;101095.19;;;10.27;100.00
11525;BME280;5819;49.648;8.330;2023-02-17T08:07:18;101096.00;;;10.31;100.00
11525;BME280;5819;49.648;8.330;2023-02-17T08:09:46;101093.75;;;10.19;100.00
11525;BME280;5819;49.648;8.330;2023-02-17T08:12:33;101102.25;;;10.24;100.00
11525;BME280;5819;49.648;8.330;2023-02-17T08:15:18;101104.91;;;10.22;100.00
11525;BME280;5819;49.648;8.330;2023-02-17T08:17:46;101105.59;;;10.27;100.00
11525;BME280;5819;49.648;8.330;2023-02-17T08:20:16;101111.00;;;10.21;100.00
11525;BME280;5819;49.648;8.330;2023-02-17T08:22:44;101098.78;;;10.23;100.00
11525;BME280;5819;49.648;8.330;2023-02-17T08:25:12;101098.19;;;10.14;100.00
11525;BME280;5819;49.648;8.330;2023-02-17T08:27:41;101099.84;;;10.18;100.00
11525;BME280;5819;49.648;8.330;2023-02-17T08:30:10;101100.72;;;10.17;100.00
11525;BME280;5819;49.648;8.330;2023-02-17T08:32:39;101098.97;;;10.17;100.00
11525;BME280;5819;49.648;8.330;2023-02-17T08:35:07;101088.84;;;10.38;100.00
11525;BME280;5819;49.648;8.330;2023-02-17T08:37:35;101088.03;;;10.36;100.00
11525;BME280;5819;49.648;8.330;2023-02-17T08:40:05;101075.00;;;10.65;100.00
11525;BME280;5819;49.648;8.330;2023-02-17T08:42:33;101092.13;;;10.72;100.00
11525;BME280;5819;49.648;8.330;2023-02-17T08:45:03;101094.22;;;10.61;100.00
11525;BME280;5819;49.648;8.330;2023-02-17T08:47:31;101102.16;;;10.56;100.00
11525;BME280;5819;49.648;8.330;2023-02-17T08:49:59;101109.84;;;10.59;100.00
11525;BME280;5819;49.648;8.330;2023-02-17T08:52:27;101097.56;;;10.64;100.00
11525;BME280;5819;49.648;8.330;2023-02-17T08:54:54;101111.69;;;10.56;100.00
11525;BME280;5819;49.648;8.330;2023-02-17T08:57:22;101087.50;;;10.54;100.00
11525;BME280;5819;49.648;8.330;2023-02-17T08:59:50;101094.06;;;10.65;100.00
11525;BME280;5819;49.648;8.330;2023-02-17T09:02:19;101102.91;;;10.60;100.00
11525;BME280;5819;49.648;8.330;2023-02-17T09:04:47;101103.25;;;10.77;100.00
11525;BME280;5819;49.648;8.330;2023-02-17T09:07:15;101098.66;;;10.85;100.00
11525;BME280;5819;49.648;8.330;2023-02-17T09:09:43;101106.06;;;10.71;100.00
11525;BME280;5819;49.648;8.330;2023-02-17T09:12:11;101108.78;;;10.94;100.00
11525;BME280;5819;49.648;8.330;2023-02-17T09:14:39;101109.03;;;10.87;100.00
11525;BME280;5819;49.648;8.330;2023-02-17T09:17:09;101114.25;;;10.85;100.00
11525;BME280;5819;49.648;8.330;2023-02-17T09:19:39;101118.81;;;11.06;100.00
11525;BME280;5819;49.648;8.330;2023-02-17T09:22:07;101121.16;;;11.14;100.00
11525;BME280;5819;49.648;8.330;2023-02-17T09:24:39;101128.41;;;11.04;100.00
11525;BME280;5819;49.648;8.330;2023-02-17T09:27:08;101116.47;;;10.97;100.00
11525;BME280;5819;49.648;8.330;2023-02-17T09:29:36;101124.88;;;11.07;100.00
11525;BME280;5819;49.648;8.330;2023-02-17T09:32:05;101107.78;;;11.24;100.00
11525;BME280;5819;49.648;8.330;2023-02-17T09:34:34;101100.09;;;11.20;100.00
11525;BME280;5819;49.648;8.330;2023-02-17T09:37:09;101095.72;;;11.22;100.00
11525;BME280;5819;49.648;8.330;2023-02-17T09:39:37;101102.28;;;11.34;100.00
11525;BME280;5819;49.648;8.330;2023-02-17T09:42:12;101094.34;;;11.37;100.00
11525;BME280;5819;49.648;8.330;2023-02-17T09:44:46;101096.81;;;11.41;100.00
11525;BME280;5819;49.648;8.330;2023-02-17T09:47:20;101096.41;;;11.52;100.00
11525;BME280;5819;49.648;8.330;2023-02-17T09:49:53;101105.66;;;11.36;100.00
11525;BME280;5819;49.648;8.330;2023-02-17T09:52:27;101105.72;;;11.34;100.00
11525;BME280;5819;49.648;8.330;2023-02-17T09:55:01;101098.78;;;11.35;100.00
11525;BME280;5819;49.648;8.330;2023-02-17T09:57:33;101109.34;;;11.30;100.00
11525;BME280;5819;49.648;8.330;2023-02-17T10:00:07;101121.41;;;11.33;100.00
11525;BME280;5819;49.648;8.330;2023-02-17T10:02:41;101125.59;;;11.37;100.00
11525;BME280;5819;49.648;8.330;2023-02-17T10:05:16;101131.81;;;11.33;100.00
11525;BME280;5819;49.648;8.330;2023-02-17T10:07:48;101131.09;;;11.27;100.00
11525;BME280;5819;49.648;8.330;2023-02-17T10:10:20;101142.63;;;11.20;100.00
11525;BME280;5819;49.648;8.330;2023-02-17T10:12:50;101128.47;;;11.29;100.00
11525;BME280;5819;49.648;8.330;2023-02-17T10:15:23;101141.88;;;11.17;100.00
11525;BME280;5819;49.648;8.330;2023-02-17T10:17:56;101138.25;;;11.22;100.00
11525;BME280;5819;49.648;8.330;2023-02-17T10:20:30;101143.38;;;11.24;100.00
11525;BME280;5819;49.648;8.330;2023-02-17T10:23:03;101147.44;;;11.33;100.00
11525;BME280;5819;49.648;8.330;2023-02-17T10:25:51;101158.97;;;11.25;100.00
11525;BME280;5819;49.648;8.330;2023-02-17T10:28:33;101157.13;;;11.29;100.00
11525;BME280;5819;49.648;8.330;2023-02-17T10:31:09;101152.66;;;11.33;100.00
11525;BME280;5819;49.648;8.330;2023-02-17T10:33:47;101145.44;;;11.41;100.00
11525;BME280;5819;49.648;8.330;2023-02-17T10:36:23;101155.69;;;11.47;100.00
11525;BME280;5819;49.648;8.330;2023-02-17T10:38:57;101152.13;;;11.48;100.00
11525;BME280;5819;49.648;8.330;2023-02-17T10:41:32;101159.06;;;11.49;100.00
11525;BME280;5819;49.648;8.330;2023-02-17T10:44:06;101150.47;;;11.47;100.00
11525;BME280;5819;49.648;8.330;2023-02-17T10:46:35;101153.44;;;11.61;100.00
11525;BME280;5819;49.648;8.330;2023-02-17T10:49:15;101148.50;;;11.53;100.00
11525;BME280;5819;49.648;8.330;2023-02-17T10:51:45;101158.13;;;11.51;100.00
11525;BME280;5819;49.648;8.330;2023-02-17T10:54:29;101156.19;;;11.56;100.00
11525;BME280;5819;49.648;8.330;2023-02-17T10:57:00;101158.66;;;11.61;100.00
11525;BME280;5819;49.648;8.330;2023-02-17T10:59:32;101145.25;;;11.73;100.00
11525;BME280;5819;49.648;8.330;2023-02-17T11:02:17;101145.50;;;11.64;100.00
11525;BME280;5819;49.648;8.330;2023-02-17T11:04:47;101152.19;;;11.72;100.00
11525;BME280;5819;49.648;8.330;2023-02-17T11:07:18;101138.34;;;11.70;100.00
11525;BME280;5819;49.648;8.330;2023-02-17T11:09:53;101137.47;;;11.71;100.00
11525;BME280;5819;49.648;8.330;2023-02-17T11:12:27;101136.56;;;11.72;100.00
11525;BME280;5819;49.648;8.330;2023-02-17T11:14:56;101145.84;;;11.55;100.00
11525;BME280;5819;49.648;8.330;2023-02-17T11:17:27;101144.91;;;11.56;100.00
11525;BME280;5819;49.648;8.330;2023-02-17T11:19:58;101129.13;;;11.60;100.00
11525;BME280;5819;49.648;8.330;2023-02-17T11:22:32;101136.88;;;11.63;100.00
11525;BME280;5819;49.648;8.330;2023-02-17T11:25:05;101136.31;;;11.54;100.00
11525;BME280;5819;49.648;8.330;2023-02-17T11:27:34;101129.78;;;11.67;100.00
11525;BME280;5819;49.648;8.330;2023-02-17T11:30:14;101130.56;;;11.69;100.00
11525;BME280;5819;49.648;8.330;2023-02-17T11:32:44;101122.81;;;11.67;100.00
11525;BME280;5819;49.648;8.330;2023-02-17T11:35:22;101115.84;;;11.68;100.00
11525;BME280;5819;49.648;8.330;2023-02-17T11:37:51;101111.25;;;11.76;100.00
11525;BME280;5819;49.648;8.330;2023-02-17T11:40:26;101108.63;;;11.76;100.00
11525;BME280;5819;49.648;8.330;2023-02-17T11:42:55;101098.88;;;11.83;100.00
11525;BME280;5819;49.648;8.330;2023-02-17T11:45:25;101097.47;;;11.72;100.00
11525;BME280;5819;49.648;8.330;2023-02-17T11:48:05;101097.50;;;11.96;100.00
11525;BME280;5819;49.648;8.330;2023-02-17T11:50:42;101105.56;;;11.90;100.00
11525;BME280;5819;49.648;8.330;2023-02-17T11:53:24;101090.94;;;11.86;100.00
11525;BME280;5819;49.648;8.330;2023-02-17T11:56:02;101086.63;;;12.08;100.00
11525;BME280;5819;49.648;8.330;2023-02-17T11:58:46;101088.16;;;12.13;100.00
11525;BME280;5819;49.648;8.330;2023-02-17T12:01:25;101090.94;;;12.32;100.00
11525;BME280;5819;49.648;8.330;2023-02-17T12:04:14;101087.16;;;12.62;100.00
11525;BME280;5819;49.648;8.330;2023-02-17T12:06:57;101085.56;;;12.58;100.00
11525;BME280;5819;49.648;8.330;2023-02-17T12:09:33;101080.50;;;12.55;100.00
11525;BME280;5819;49.648;8.330;2023-02-17T12:12:16;101077.94;;;12.76;100.00
11525;BME280;5819;49.648;8.330;2023-02-17T12:15:02;101083.06;;;13.21;100.00
11525;BME280;5819;49.648;8.330;2023-02-17T12:17:42;101074.88;;;13.50;100.00
11525;BME280;5819;49.648;8.330;2023-02-17T12:20:29;101072.78;;;13.97;100.00
11525;BME280;5819;49.648;8.330;2023-02-17T12:23:09;101066.34;;;14.43;100.00
11525;BME280;5819;49.648;8.330;2023-02-17T12:25:44;101074.94;;;14.45;100.00
11525;BME280;5819;49.648;8.330;2023-02-17T12:28:44;101088.13;;;14.04;100.00
11525;BME280;5819;49.648;8.330;2023-02-17T12:31:23;101092.06;;;13.76;100.00
11525;BME280;5819;49.648;8.330;2023-02-17T12:34:00;101092.31;;;13.29;100.00
11525;BME280;5819;49.648;8.330;2023-02-17T12:36:33;101102.53;;;13.13;100.00
11525;BME280;5819;49.648;8.330;2023-02-17T12:39:10;101106.59;;;12.99;100.00
11525;BME280;5819;49.648;8.330;2023-02-17T12:41:42;101092.91;;;12.92;100.00
11525;BME280;5819;49.648;8.330;2023-02-17T12:44:16;101085.97;;;13.15;100.00
11525;BME280;5819;49.648;8.330;2023-02-17T12:46:49;101080.53;;;12.97;100.00
11525;BME280;5819;49.648;8.330;2023-02-17T12:49:20;101072.94;;;12.70;100.00
11525;BME280;5819;49.648;8.330;2023-02-17T12:51:54;101085.03;;;12.72;100.00
11525;BME280;5819;49.648;8.330;2023-02-17T12:54:30;101075.50;;;12.71;100.00
11525;BME280;5819;49.648;8.330;2023-02-17T12:57:21;101083.69;;;12.62;100.00
11525;BME280;5819;49.648;8.330;2023-02-17T12:59:52;101065.59;;;12.57;100.00
11525;BME280;5819;49.648;8.330;2023-02-17T13:02:21;101081.09;;;12.62;100.00
11525;BME280;5819;49.648;8.330;2023-02-17T13:04:51;101066.28;;;12.62;100.00
11525;BME280;5819;49.648;8.330;2023-02-17T13:07:44;101077.13;;;12.52;100.00
11525;BME280;5819;49.648;8.330;2023-02-17T13:10:19;101068.97;;;12.38;100.00
11525;BME280;5819;49.648;8.330;2023-02-17T13:12:56;101069.59;;;12.44;100.00
11525;BME280;5819;49.648;8.330;2023-02-17T13:15:32;101071.09;;;12.28;100.00
11525;BME280;5819;49.648;8.330;2023-02-17T13:18:02;101063.16;;;12.31;100.00
11525;BME280;5819;49.648;8.330;2023-02-17T13:20:52;101054.88;;;12.43;100.00
11525;BME280;5819;49.648;8.330;2023-02-17T13:23:41;101050.56;;;12.42;100.00